LINDEN NJ US SAI current weather conditions

sailwx.info

Wind from 310 at 10 knots gusting 15

Air temperature 4.0° C
Visibility: greater than 8.7 NM
Dewpoint -4.0° C

Last reported at 2020-Jan-28 23:01 UTC.
Time now 2020-Jan-28 23:42 UTC

Location: N 40°37' W 074°14'.
View on Google Maps.

See reports from other nearby stations

  
Tides and Currents Weather Stations Pressure Air Temp Water Temp Dewpoint Dewpoint Depression Visibility Wind Speed Wind Dir Waves Ship Positions
date/time (UTC)wind fromknots sea level pressurealtimeterstation pressurevisibilityair tempwater tempwave heightnotes
2020-Jan-28 23:01 310 10 gusting 15 8.7 4.0
2020-Jan-28 22:56 310 11 gusting 15 8.7 4.0
2020-Jan-28 22:55 320 11 gusting 15 8.7 4.3
2020-Jan-28 22:35 320 9 gusting 15 8.7 4.5
2020-Jan-28 22:15 310 8 8.7 4.6
2020-Jan-28 22:01 310 12 gusting 16 8.7 5.0
2020-Jan-28 21:56 310 9 8.7 5.0
2020-Jan-28 21:55 310 10 8.7 4.7
2020-Jan-28 21:35 320 11 gusting 17 8.7 4.7
2020-Jan-28 21:15 320 7 gusting 14 8.7 4.8
2020-Jan-28 21:01 310 10 8.7 5.0
2020-Jan-28 20:56 300 10 8.7 5.0
2020-Jan-28 20:55 310 10 8.7 4.8
2020-Jan-28 20:35 320 9 8.7 5.0
2020-Jan-28 20:15 320 11 gusting 20 8.7 5.0
2020-Jan-28 20:01 310 17 gusting 25 8.7 6.0
2020-Jan-28 19:56 320 14 gusting 20 8.7 6.0
2020-Jan-28 19:55 330 14 gusting 20 8.7 6.0
2020-Jan-28 19:35 340 15 gusting 20 8.7 6.3
2020-Jan-28 19:15 320 15 gusting 21 8.7 6.5
2020-Jan-28 19:01 300 16 gusting 23 8.7 7.0
2020-Jan-28 18:56 310 18 gusting 23 8.7 7.0
2020-Jan-28 18:55 320 17 gusting 22 8.7 6.5
2020-Jan-28 18:35 320 17 gusting 20 8.7 6.8
2020-Jan-28 18:15 320 13 gusting 20 8.7 7.0
2020-Jan-28 17:55 330 14 gusting 22 8.7 6.8
2020-Jan-28 17:35 340 12 gusting 20 8.7 7.0
2020-Jan-28 17:15 320 15 gusting 20 8.7 7.0
2020-Jan-28 17:01 340 14 8.7 7.0
2020-Jan-28 16:56 330 12 gusting 18 8.7 7.0
2020-Jan-28 16:55 340 12 gusting 18 8.7 7.0
2020-Jan-28 16:35 320 9 gusting 18 8.7 6.3
2020-Jan-28 16:15 340 11 gusting 20 8.7 5.9
2020-Jan-28 16:01 350 10 gusting 16 8.7 6.0
2020-Jan-28 15:56 340 7 8.7 6.0
2020-Jan-28 15:55 340 8 8.7 5.5
2020-Jan-28 15:35 330 12 gusting 19 8.7 4.7
2020-Jan-28 15:15 330 12 gusting 17 8.7 4.4
2020-Jan-28 15:01 320 9 gusting 18 8.7 4.0
2020-Jan-28 14:56 320 12 gusting 18 8.7 4.0
2020-Jan-28 14:55 330 12 gusting 18 8.7 4.1
2020-Jan-28 14:35 320 6 8.7 3.7
2020-Jan-28 14:15 310 7 8.7 3.3
2020-Jan-28 14:01 310 7 8.7 3.0
2020-Jan-28 13:56 300 11 8.7 3.0
2020-Jan-28 13:55 310 10 8.7 3.0
2020-Jan-28 13:35 310 8 gusting 13 8.7 2.8
2020-Jan-28 13:15 310 12 gusting 18 8.7 2.7
2020-Jan-28 13:01 300 8 8.7 3.0
2020-Jan-28 12:56 310 8 gusting 15 8.7 3.0
2020-Jan-28 12:55 310 8 gusting 15 8.7 2.6
2020-Jan-28 12:35 310 7 8.7 2.5
2020-Jan-28 12:15 310 6 gusting 13 8.7 2.3
2020-Jan-28 11:55 320 6 gusting 16 8.7 2.3
2020-Jan-28 11:35 310 8 gusting 17 8.7 2.5
2020-Jan-28 11:15 310 11 gusting 14 8.7 2.7
2020-Jan-28 11:01 300 9 8.7 3.0
2020-Jan-28 10:56 310 8 8.7 3.0
2020-Jan-28 10:55 320 9 8.7 2.8
2020-Jan-28 10:35 320 7 8.7 3.0
2020-Jan-28 10:15 320 6 8.7 2.7
2020-Jan-28 10:01 300 7 gusting 14 8.7 3.0
2020-Jan-28 09:56 300 8 gusting 14 8.7 3.0
2020-Jan-28 09:55 320 7 gusting 14 8.7 2.7
2020-Jan-28 09:35 320 8 8.7 2.7
2020-Jan-28 09:15 320 7 8.7 2.7
2020-Jan-28 09:01 310 11 gusting 16 8.7 3.0
2020-Jan-28 08:56 310 14 8.7 3.0
2020-Jan-28 08:55 320 13 gusting 16 8.7 3.1
2020-Jan-28 08:35 310 11 gusting 13 8.7 3.2
2020-Jan-28 08:15 310 9 8.7 3.5
2020-Jan-28 08:01 310 9 8.7 4.0
2020-Jan-28 07:56 300 8 8.7 4.0
2020-Jan-28 07:55 310 7 8.7 3.6
2020-Jan-28 07:35 320 7 8.7 3.6
2020-Jan-28 07:15 320 8 8.7 3.7
2020-Jan-28 07:01 310 9 8.7 4.0
2020-Jan-28 06:56 310 8 8.7 4.0
2020-Jan-28 06:55 320 9 8.7 3.8
2020-Jan-28 06:35 340 7 8.7 3.8
2020-Jan-28 06:15 340 6 8.7 3.8
2020-Jan-28 05:55 330 3 8.7 3.8
2020-Jan-28 05:35 330 8 8.7 4.0
2020-Jan-28 05:01 330 6 8.7 4.0
2020-Jan-28 04:56 330 8 8.7 4.0
2020-Jan-28 04:01 310 8 gusting 14 8.7 5.0
2020-Jan-28 03:56 300 10 gusting 14 8.7 5.0
2020-Jan-28 03:35 8.7 4.8
2020-Jan-28 03:15 8.7 4.7
2020-Jan-28 03:01 8.7 5.0
2020-Jan-28 02:56 8.7 5.0
2020-Jan-28 02:55 8.7 4.8
2020-Jan-28 02:35 8.7 5.0
2020-Jan-28 02:15 8.7 5.1
2020-Jan-28 02:01 8.7 6.0
2020-Jan-28 01:56 8.7 6.0
2020-Jan-28 01:55 8.7 5.3
2020-Jan-28 01:35 8.7 5.4
2020-Jan-28 01:15 300 6 8.7 5.3
2020-Jan-28 01:01 8.7 6.0
2020-Jan-28 00:56 8.7 6.0
2020-Jan-28 00:55 8.7 5.5
2020-Jan-28 00:35 8.7 5.6
2020-Jan-28 00:15 8.7 5.7
2020-Jan-27 23:55 8.7 5.9
2020-Jan-27 23:35 310 6 8.7 6.0
2020-Jan-27 23:15 300 7 8.7 6.1
2020-Jan-27 23:01 300 7 8.7 6.0
2020-Jan-27 22:56 300 8 8.7 6.0
2020-Jan-27 22:55 310 7 8.7 6.3
2020-Jan-27 22:35 310 6 8.7 6.4
2020-Jan-27 22:15 8.7 6.5
2020-Jan-27 22:01 290 10 gusting 16 8.7 7.0
2020-Jan-27 21:56 280 7 gusting 16 8.7 7.0
2020-Jan-27 21:55 290 10 gusting 16 8.7 6.6
2020-Jan-27 21:35 300 13 gusting 18 8.7 6.8
2020-Jan-27 21:15 310 12 gusting 18 8.7 6.7
2020-Jan-27 21:01 280 9 8.7 7.0
2020-Jan-27 20:56 300 7 8.7 7.0
2020-Jan-27 20:55 310 8 8.7 6.8
2020-Jan-27 20:35 310 8 8.7 7.1
2020-Jan-27 20:15 8.7 7.0
2020-Jan-27 20:01 280 7 8.7 7.0
2020-Jan-27 19:56 280 7 8.7 7.0
2020-Jan-27 19:55 300 8 8.7 6.9
2020-Jan-27 19:35 280 4 8.7 6.5
2020-Jan-27 19:15 270 6 8.7 6.2
2020-Jan-27 19:01 270 9 8.7 6.0
2020-Jan-27 18:56 270 8 gusting 15 8.7 6.0
2020-Jan-27 18:55 280 8 gusting 15 8.7 6.1
2020-Jan-27 18:35 280 8 gusting 13 8.7 6.0
2020-Jan-27 18:15 280 9 gusting 13 8.7 6.1
2020-Jan-27 17:55 270 8 gusting 14 8.7 6.3
2020-Jan-27 17:35 290 8 8.7 6.0
2020-Jan-27 17:15 270 8 gusting 13 8.7 5.7
2020-Jan-27 17:01 270 8 8.7 6.0
2020-Jan-27 16:56 260 8 8.7 6.0
2020-Jan-27 16:55 270 8 8.7 5.5
2020-Jan-27 16:01 260 6 8.7 6.0
2020-Jan-27 15:56 260 7 8.7 6.0
2020-Jan-27 15:15 280 6 8.7 4.7
2020-Jan-27 15:01 260 8 8.7 4.0
2020-Jan-27 14:56 270 8 8.7 4.0
2020-Jan-27 14:55 270 8 8.7 4.2
2020-Jan-27 14:35 270 6 8.7 4.0
2020-Jan-27 14:15 270 8 8.7 3.8
2020-Jan-27 13:55 270 4 8.7 3.6
2020-Jan-27 13:35 270 6 8.7 3.5
2020-Jan-27 13:15 270 6 8.7 3.1
2020-Jan-27 13:01 260 5 8.7 3.0
2020-Jan-27 12:56 260 4 8.7 3.0
2020-Jan-27 12:55 270 6 8.7 3.0
2020-Jan-27 12:35 270 5 8.7 2.8
2020-Jan-27 12:15 280 6 8.7 2.8
2020-Jan-27 11:55 270 6 8.7 2.7
2020-Jan-27 11:35 8.7 2.8
2020-Jan-27 11:15 270 5 8.7 2.7
2020-Jan-27 11:01 260 7 8.7 3.0
2020-Jan-27 10:56 270 5 8.7 3.0
2020-Jan-27 10:55 280 5 8.7 2.7
2020-Jan-27 10:35 270 5 8.7 2.6
2020-Jan-27 10:15 270 6 8.7 2.5
2020-Jan-27 10:01 260 4 8.7 2.0
2020-Jan-27 09:56 260 5 8.7 2.0
2020-Jan-27 09:55 270 5 8.7 2.5
2020-Jan-27 09:35 270 6 8.7 2.5
2020-Jan-27 09:15 280 6 8.7 2.5
2020-Jan-27 09:01 260 6 8.7 3.0
2020-Jan-27 08:56 270 7 8.7 3.0
2020-Jan-27 08:55 280 7 8.7 2.5
2020-Jan-27 08:35 270 4 8.7 2.5
2020-Jan-27 08:15 8.7 2.3
2020-Jan-27 08:01 8.7 2.0
2020-Jan-27 07:56 270 6 8.7 2.0
2020-Jan-27 07:55 280 6 8.7 2.5
2020-Jan-27 07:35 270 6 8.7 2.3
2020-Jan-27 07:15 270 5 8.7 1.8
2020-Jan-27 07:01 260 6 8.7 2.0
2020-Jan-27 06:56 250 5 8.7 2.0
2020-Jan-27 06:35 8.7 1.8
2020-Jan-27 06:15 8.7 2.0
2020-Jan-27 05:55 270 3 8.7 2.2
2020-Jan-27 05:35 8.7 2.3
2020-Jan-27 05:15 8.7 2.5
2020-Jan-27 05:01 8.7 3.0
2020-Jan-27 04:56 8.7 3.0
2020-Jan-27 04:55 8.7 2.6
2020-Jan-27 04:35 8.7 2.3
2020-Jan-27 04:15 290 2 8.7 2.7
2020-Jan-27 04:01 8.7 3.0
2020-Jan-27 03:56 8.7 3.0
2020-Jan-27 03:55 290 3 8.7 2.7
2020-Jan-27 03:35 8.7 3.0
2020-Jan-27 03:15 8.7 3.3
2020-Jan-27 03:01 8.7 3.0
2020-Jan-27 02:56 8.7 3.0
2020-Jan-27 02:35 8.7 3.6
2020-Jan-27 02:15 8.7 4.0
2020-Jan-27 02:01 270 6 8.7 4.0
2020-Jan-27 01:56 280 3 8.7 4.0
2020-Jan-27 01:55 8.7 4.0
2020-Jan-27 01:35 280 6 8.7 4.3
2020-Jan-27 01:15 290 6 8.7 4.4
2020-Jan-27 01:01 280 7 gusting 15 8.7 4.0
2020-Jan-27 00:56 280 8 gusting 15 8.7 4.0
2020-Jan-27 00:55 290 9 gusting 15 8.7 4.5
2020-Jan-27 00:35 290 7 gusting 13 8.7 4.6
2020-Jan-27 00:15 8.7 4.8
2020-Jan-26 23:55 300 7 8.7 5.0
2020-Jan-26 23:35 300 7 gusting 14 8.7 5.5
2020-Jan-26 23:15 300 11 gusting 19 8.7 6.1
2020-Jan-26 23:01 290 9 8.7 6.0